createdAt,value
2018-04-12T07:08:50.373Z,9.10
2018-04-12T07:11:17.160Z,9.20
2018-04-12T07:13:43.153Z,9.10
2018-04-12T07:16:09.165Z,9.20
2018-04-12T07:18:35.163Z,9.10
2018-04-12T07:21:02.348Z,9.20
2018-04-12T07:23:28.328Z,9.20
2018-04-12T07:25:55.085Z,9.30
2018-04-12T07:28:21.059Z,9.30
2018-04-12T07:30:47.043Z,9.30
2018-04-12T07:33:13.021Z,9.30
2018-04-12T07:35:39.757Z,9.40
2018-04-12T07:38:06.506Z,9.40
2018-04-12T07:40:32.607Z,9.40
2018-04-12T07:42:59.343Z,9.50
2018-04-12T07:45:26.079Z,9.50
2018-04-12T07:47:52.825Z,9.50
2018-04-12T07:50:19.623Z,9.60
2018-04-12T07:52:45.602Z,9.50
2018-04-12T07:55:11.616Z,9.60
2018-04-12T07:57:37.627Z,9.70
2018-04-12T08:00:04.448Z,9.80
2018-04-12T08:02:31.203Z,9.80
2018-04-12T08:04:57.203Z,9.80
2018-04-12T08:07:23.199Z,9.90
2018-04-12T08:09:49.212Z,10.00
2018-04-12T08:12:15.203Z,10.00
2018-04-12T08:14:41.205Z,10.00
2018-04-12T08:17:07.204Z,10.00
2018-04-12T08:19:34.995Z,10.20
2018-04-12T08:22:00.979Z,10.10
2018-04-12T08:24:27.968Z,10.20
2018-04-12T08:26:54.241Z,10.30
2018-04-12T08:29:21.050Z,10.50
2018-04-12T08:31:47.062Z,10.50
2018-04-12T08:34:13.061Z,10.50
2018-04-12T08:36:39.093Z,10.50
2018-04-12T08:39:05.882Z,10.50
2018-04-12T08:41:32.618Z,10.50
2018-04-12T08:43:59.361Z,10.50
2018-04-12T08:46:26.318Z,10.50
2018-04-12T08:48:53.087Z,10.60
2018-04-12T08:51:19.085Z,10.50
2018-04-12T08:53:45.113Z,10.60
2018-04-12T08:56:11.097Z,10.70
2018-04-12T08:58:37.837Z,10.80
2018-04-12T09:01:04.625Z,10.70
2018-04-12T09:03:30.609Z,10.70
2018-04-12T09:05:56.588Z,10.70
2018-04-12T09:08:22.601Z,10.60
2018-04-12T09:10:48.707Z,10.70
2018-04-12T09:13:14.719Z,10.60
2018-04-12T09:15:40.718Z,10.60
2018-04-12T09:18:25.269Z,10.50
2018-04-12T09:20:51.352Z,10.40
2018-04-12T09:23:17.352Z,10.30
2018-04-12T09:25:43.335Z,10.30
2018-04-12T09:28:10.106Z,10.30
2018-04-12T09:30:36.149Z,10.30
2018-04-12T09:33:02.168Z,10.20
2018-04-12T09:35:28.171Z,10.30
2018-04-12T09:37:55.376Z,10.20
2018-04-12T09:40:21.481Z,10.20
2018-04-12T09:42:48.296Z,10.20
2018-04-12T09:45:14.286Z,10.20
2018-04-12T09:47:40.274Z,10.20
2018-04-12T09:50:07.064Z,10.30
2018-04-12T09:52:33.019Z,10.40
2018-04-12T09:54:59.762Z,10.50
2018-04-12T09:57:25.768Z,10.50
2018-04-12T09:59:52.556Z,10.40
2018-04-12T10:02:24.693Z,10.40
2018-04-12T10:05:05.558Z,10.40
2018-04-12T10:07:37.593Z,10.50
2018-04-12T10:10:04.427Z,10.50
2018-04-12T10:12:30.399Z,10.50
2018-04-12T10:14:56.399Z,10.60
2018-04-12T10:17:22.456Z,10.60
2018-04-12T10:19:48.478Z,10.80
2018-04-12T10:22:14.457Z,10.80
2018-04-12T10:24:40.453Z,10.80
2018-04-12T10:27:07.200Z,11.00
2018-04-12T10:29:33.228Z,11.00
2018-04-12T10:31:59.229Z,11.10
2018-04-12T10:34:25.969Z,11.10
2018-04-12T10:36:51.975Z,11.10
2018-04-12T10:39:18.770Z,11.30
2018-04-12T10:41:44.843Z,11.30
2018-04-12T10:44:11.599Z,11.50
2018-04-12T10:46:37.573Z,11.40
2018-04-12T10:49:03.551Z,11.50
2018-04-12T10:51:29.618Z,11.60
2018-04-12T10:53:56.345Z,11.80
2018-04-12T10:56:24.892Z,11.70
2018-04-12T10:58:50.860Z,11.90
2018-04-12T11:01:17.659Z,12.40
2018-04-12T11:03:43.645Z,12.40
2018-04-12T11:06:09.619Z,12.40
2018-04-12T11:08:35.638Z,12.50
2018-04-12T11:11:01.629Z,12.50
2018-04-12T11:13:27.604Z,12.60
2018-04-12T11:15:55.232Z,12.60
2018-04-12T11:18:21.279Z,12.60
2018-04-12T11:20:47.335Z,12.60
2018-04-12T11:23:13.322Z,12.70
2018-04-12T11:25:40.038Z,12.80
2018-04-12T11:28:06.767Z,12.80
2018-04-12T11:30:32.845Z,12.80
2018-04-12T11:32:58.814Z,12.90
2018-04-12T11:35:24.795Z,12.90
2018-04-12T11:37:50.799Z,12.90
2018-04-12T11:40:16.805Z,13.00
2018-04-12T11:42:42.823Z,13.00
2018-04-12T11:45:08.859Z,13.00
2018-04-12T11:47:34.883Z,12.90
2018-04-12T11:50:00.928Z,12.90
2018-04-12T11:52:26.877Z,12.80
2018-04-12T11:54:53.744Z,12.70
2018-04-12T11:57:19.734Z,12.70
2018-04-12T11:59:46.496Z,12.80
2018-04-12T12:02:12.546Z,12.80
2018-04-12T12:04:38.507Z,12.80
2018-04-12T12:07:05.258Z,12.70
2018-04-12T12:09:32.022Z,12.70
2018-04-12T12:11:58.029Z,12.60
2018-04-12T12:14:24.035Z,12.60
2018-04-12T12:16:50.038Z,12.70
2018-04-12T12:19:16.846Z,12.70
2018-04-12T12:21:42.840Z,12.70
2018-04-12T12:24:08.800Z,12.70
2018-04-12T12:26:34.806Z,12.60
2018-04-12T12:29:00.819Z,12.60
2018-04-12T12:31:26.804Z,12.50
2018-04-12T12:33:52.813Z,12.50
2018-04-12T12:36:19.542Z,12.50
2018-04-12T12:38:46.257Z,12.50
2018-04-12T12:41:12.243Z,12.50
2018-04-12T12:43:38.217Z,12.50
2018-04-12T12:46:04.968Z,12.50
2018-04-12T12:48:30.990Z,12.50
2018-04-12T12:50:57.040Z,12.50
2018-04-12T12:53:23.042Z,12.50
2018-04-12T12:55:49.025Z,12.40
2018-04-12T12:58:15.741Z,12.30
2018-04-12T13:00:41.890Z,12.30
2018-04-12T13:03:08.671Z,12.20
2018-04-12T13:05:34.744Z,12.10
2018-04-12T13:08:01.539Z,12.00
2018-04-12T13:10:27.587Z,12.00
2018-04-12T13:12:53.632Z,12.00
2018-04-12T13:15:20.392Z,11.80
2018-04-12T13:17:46.361Z,11.80
2018-04-12T13:20:12.476Z,11.80
2018-04-12T13:22:38.502Z,11.70
2018-04-12T13:25:05.267Z,11.50
2018-04-12T13:27:32.026Z,11.40
2018-04-12T13:29:58.507Z,11.40
2018-04-12T13:32:24.501Z,11.40
2018-04-12T13:34:50.495Z,11.30
2018-04-12T13:37:16.501Z,11.40
2018-04-12T13:39:42.543Z,11.30
2018-04-12T13:42:08.561Z,11.20
2018-04-12T13:44:34.527Z,11.20
2018-04-12T13:47:00.495Z,11.20
2018-04-12T13:49:26.520Z,11.20
2018-04-12T13:51:52.508Z,11.20
2018-04-12T13:54:19.468Z,11.30
2018-04-12T13:56:45.468Z,11.30
2018-04-12T13:59:12.694Z,11.30
2018-04-12T14:01:38.698Z,11.30
2018-04-12T14:04:04.709Z,11.30
2018-04-12T14:06:30.735Z,11.30
2018-04-12T14:08:56.763Z,11.40
2018-04-12T14:11:22.863Z,11.40
2018-04-12T14:16:21.118Z,11.50
2018-04-12T14:18:47.439Z,11.50
2018-04-12T14:21:13.494Z,11.60
2018-04-12T14:23:41.912Z,11.60
2018-04-12T14:26:09.779Z,11.70
2018-04-12T14:28:36.516Z,11.80
2018-04-12T14:31:03.325Z,11.80
2018-04-12T14:33:30.148Z,11.80
2018-04-12T14:35:56.120Z,11.80
2018-04-12T14:38:22.157Z,11.80
2018-04-12T14:40:48.327Z,11.90
2018-04-12T14:43:14.336Z,12.10
2018-04-12T14:45:40.366Z,12.20
2018-04-12T14:48:06.348Z,12.30
2018-04-12T14:50:32.374Z,12.60
2018-04-12T14:52:58.351Z,12.70
2018-04-12T14:55:25.108Z,12.90
2018-04-12T14:57:51.111Z,12.90
2018-04-12T15:00:18.535Z,13.00
2018-04-12T15:05:19.373Z,13.00
2018-04-12T15:07:52.029Z,13.10
2018-04-12T15:10:18.870Z,13.10
2018-04-12T15:12:44.879Z,13.00
2018-04-12T15:15:10.881Z,13.00
2018-04-12T15:17:39.333Z,13.00
2018-04-12T15:20:06.976Z,13.10
2018-04-12T15:22:33.728Z,13.10
2018-04-12T15:25:01.436Z,13.10
2018-04-12T15:27:27.558Z,13.20
2018-04-12T15:29:53.675Z,13.20
2018-04-12T15:32:20.695Z,13.20
2018-04-12T15:34:46.720Z,13.10
2018-04-12T15:37:14.307Z,13.10
2018-04-12T15:39:41.270Z,13.00
2018-04-12T15:42:07.324Z,13.00
2018-04-12T15:44:34.388Z,13.00
2018-04-12T15:47:00.585Z,12.90
2018-04-12T15:49:26.655Z,12.90
2018-04-12T15:51:52.661Z,13.00
2018-04-12T15:54:18.722Z,13.00
2018-04-12T15:56:46.164Z,13.00
2018-04-12T15:59:12.157Z,13.00
2018-04-12T16:01:38.159Z,13.00
2018-04-12T16:04:04.220Z,13.00
2018-04-12T16:06:31.915Z,13.10
2018-04-12T16:08:59.072Z,13.10
2018-04-12T16:11:26.930Z,13.10
2018-04-12T16:13:53.506Z,13.10
2018-04-12T16:16:20.200Z,13.10
2018-04-12T16:18:46.342Z,13.10
2018-04-12T16:21:16.787Z,13.10
2018-04-12T16:23:42.895Z,13.10
2018-04-12T16:26:09.717Z,13.10
2018-04-12T16:28:35.707Z,13.10
2018-04-12T16:31:03.988Z,13.10
2018-04-12T16:33:31.109Z,13.20
2018-04-12T16:35:57.157Z,13.10
2018-04-12T16:38:23.950Z,13.10
2018-04-12T16:40:50.993Z,13.10
2018-04-12T16:43:16.999Z,13.10
2018-04-12T16:45:42.994Z,13.10
2018-04-12T16:48:09.018Z,13.10
2018-04-12T16:50:35.121Z,13.10
2018-04-12T16:53:01.094Z,13.10
2018-04-12T16:55:27.085Z,13.00
2018-04-12T16:57:53.851Z,13.00
2018-04-12T17:00:19.876Z,13.00
2018-04-12T17:02:46.786Z,13.00
2018-04-12T17:05:12.757Z,12.90
2018-04-12T17:07:39.491Z,13.00
2018-04-12T17:10:06.321Z,13.00
2018-04-12T17:12:35.191Z,13.00
2018-04-12T17:15:01.206Z,13.00
2018-04-12T17:17:27.293Z,13.10
2018-04-12T17:19:54.136Z,13.00
2018-04-12T17:22:20.229Z,13.00
2018-04-12T17:24:47.006Z,13.10
2018-04-12T17:27:13.042Z,13.00
2018-04-12T17:29:41.226Z,13.10
2018-04-12T17:32:07.211Z,13.10
2018-04-12T18:55:51.345Z,12.80
2018-04-12T18:58:17.353Z,12.80
2018-04-12T19:00:44.795Z,12.80
2018-04-12T19:03:11.667Z,12.80
2018-04-12T19:05:38.656Z,12.80
2018-04-12T19:43:16.908Z,12.60
2018-04-12T19:45:43.733Z,12.60
2018-04-12T19:48:09.796Z,12.60
2018-04-12T19:50:36.011Z,12.60
2018-04-12T19:53:02.392Z,12.60
2018-04-12T20:39:00.298Z,12.40
2018-04-12T20:41:26.344Z,12.40
2018-04-12T20:43:52.352Z,12.40
2018-04-12T20:46:18.461Z,12.40
2018-04-12T20:48:44.805Z,12.40
2018-04-12T20:51:11.016Z,12.40
2018-04-12T20:53:37.085Z,12.40
2018-04-12T20:56:03.392Z,12.40
2018-04-12T20:58:29.443Z,12.40
2018-04-12T21:00:56.271Z,12.30
2018-04-12T21:03:22.289Z,12.30
2018-04-12T21:05:48.315Z,12.30
2018-04-12T21:08:15.078Z,12.30
2018-04-12T21:10:41.877Z,12.20
2018-04-12T21:13:07.901Z,12.20
2018-04-12T21:15:33.978Z,12.20
2018-04-12T21:18:00.046Z,12.20
2018-04-12T21:20:26.183Z,12.20
2018-04-12T21:22:52.963Z,12.10
2018-04-12T21:25:18.967Z,12.00
2018-04-12T21:27:44.991Z,12.00
2018-04-12T21:30:11.067Z,11.90
2018-04-12T21:32:37.158Z,11.80
2018-04-12T21:35:03.213Z,11.80
2018-04-12T21:37:29.991Z,11.70
2018-04-12T21:39:56.275Z,11.80
2018-04-12T21:42:23.998Z,11.80
2018-04-12T21:44:50.051Z,11.80
2018-04-12T21:47:16.246Z,11.80
2018-04-12T21:49:42.384Z,11.80
2018-04-12T21:52:09.212Z,11.90
2018-04-12T21:54:35.261Z,11.80
2018-04-12T21:57:02.122Z,11.80
2018-04-12T21:59:28.261Z,11.80
2018-04-12T22:01:54.331Z,11.80
2018-04-12T22:04:20.510Z,11.80
2018-04-12T22:06:46.693Z,11.90
2018-04-12T22:09:13.689Z,11.80
2018-04-12T22:11:39.907Z,11.80
2018-04-12T22:14:06.107Z,11.80
2018-04-12T22:16:32.273Z,11.80
2018-04-12T22:18:58.445Z,11.80
2018-04-12T22:21:25.388Z,11.70
2018-04-12T22:23:51.576Z,11.70
2018-04-12T22:26:17.779Z,11.70
2018-04-12T22:28:43.952Z,11.70
2018-04-12T22:31:10.881Z,11.60
2018-04-12T22:33:37.137Z,11.60
2018-04-12T22:36:03.289Z,11.50
2018-04-12T22:38:29.518Z,11.50
2018-04-12T22:40:56.508Z,11.50
2018-04-12T22:43:23.375Z,11.50
2018-04-12T22:45:49.666Z,11.50
2018-04-12T22:48:16.527Z,11.40
2018-04-12T22:50:43.374Z,11.40
2018-04-12T22:53:09.556Z,11.30
2018-04-12T22:55:35.778Z,11.30
